createdAt,value
2018-07-13T00:00:03.211Z,99.90
2018-07-13T00:02:31.232Z,99.90
2018-07-13T00:04:59.184Z,99.90
2018-07-13T00:07:27.151Z,99.90
2018-07-13T00:09:55.159Z,99.90
2018-07-13T00:12:23.148Z,99.90
2018-07-13T00:15:02.200Z,99.90
2018-07-13T00:17:30.980Z,99.90
2018-07-13T00:20:00.915Z,99.90
2018-07-13T00:22:28.909Z,99.90
2018-07-13T00:24:56.889Z,99.90
2018-07-13T00:27:24.838Z,99.90
2018-07-13T00:29:53.726Z,99.90
2018-07-13T00:32:21.664Z,99.90
2018-07-13T00:34:49.624Z,99.90
2018-07-13T00:37:17.865Z,99.90
2018-07-13T00:39:47.360Z,99.90
2018-07-13T00:42:15.344Z,99.90
2018-07-13T00:44:43.304Z,99.90
2018-07-13T00:47:11.338Z,99.90
2018-07-13T00:49:40.287Z,99.90
2018-07-13T00:52:08.310Z,99.90
2018-07-13T00:54:36.184Z,99.90
2018-07-13T00:57:04.058Z,99.90
2018-07-13T00:59:31.893Z,99.90
2018-07-13T01:01:59.696Z,99.90
2018-07-13T01:04:27.593Z,99.90
2018-07-13T01:06:56.463Z,99.90
2018-07-13T01:09:24.373Z,99.90
2018-07-13T01:11:52.344Z,99.90
2018-07-13T01:14:33.650Z,99.90
2018-07-13T01:20:05.403Z,99.90
2018-07-13T01:22:33.307Z,99.90
2018-07-13T01:25:01.142Z,99.90
2018-07-13T01:27:29.023Z,99.90
2018-07-13T01:29:57.789Z,99.90
2018-07-13T01:32:25.765Z,99.90
2018-07-13T01:34:53.688Z,99.90
2018-07-13T01:37:21.626Z,99.90
2018-07-13T01:39:49.429Z,99.90
2018-07-13T01:42:17.390Z,99.90
2018-07-13T01:44:45.237Z,99.90
2018-07-13T01:47:13.254Z,99.90
2018-07-13T01:49:41.095Z,99.90
2018-07-13T01:52:08.944Z,99.90
2018-07-13T01:54:36.860Z,99.90
2018-07-13T01:57:04.840Z,99.90
2018-07-13T01:59:33.684Z,99.90
2018-07-13T02:02:01.504Z,99.90
2018-07-13T02:04:29.498Z,99.90
2018-07-13T02:06:57.391Z,99.90
2018-07-13T02:09:25.268Z,99.90
2018-07-13T02:11:53.111Z,99.90
2018-07-13T02:14:21.026Z,99.90
2018-07-13T02:16:48.868Z,99.90
2018-07-13T02:19:16.656Z,99.90
2018-07-13T02:21:44.539Z,99.90
2018-07-13T02:24:12.451Z,99.90
2018-07-13T02:26:40.331Z,99.90
2018-07-13T02:29:08.230Z,99.90
2018-07-13T02:31:36.123Z,99.90
2018-07-13T02:34:04.007Z,99.90
2018-07-13T02:36:31.875Z,99.90
2018-07-13T02:38:59.806Z,99.90
2018-07-13T02:41:27.647Z,99.90
2018-07-13T02:43:55.511Z,99.90
2018-07-13T02:46:23.421Z,99.90
2018-07-13T02:48:51.274Z,99.90
2018-07-13T02:51:19.210Z,99.90
2018-07-13T02:53:47.117Z,99.90
2018-07-13T02:56:14.945Z,99.90
2018-07-13T02:58:42.801Z,99.90
2018-07-13T03:01:11.333Z,99.90
2018-07-13T03:03:39.166Z,99.90
2018-07-13T03:06:07.154Z,99.90
2018-07-13T03:08:36.785Z,99.90
2018-07-13T03:13:33.582Z,99.90
2018-07-13T03:16:02.699Z,99.90
2018-07-13T03:18:30.684Z,99.90
2018-07-13T03:20:58.617Z,99.90
2018-07-13T03:23:26.686Z,99.90
2018-07-13T03:25:54.814Z,99.90
2018-07-13T03:28:23.491Z,99.90
2018-07-13T03:30:53.391Z,99.90
2018-07-13T03:33:21.499Z,99.90
2018-07-13T03:35:49.649Z,99.90
2018-07-13T03:38:17.740Z,99.90
2018-07-13T03:40:46.893Z,99.90
2018-07-13T03:43:14.998Z,99.90
2018-07-13T03:45:42.988Z,99.90
2018-07-13T03:48:12.096Z,99.90
2018-07-13T03:50:40.108Z,99.90
2018-07-13T03:53:09.110Z,99.90
2018-07-13T03:55:37.652Z,99.90
2018-07-13T03:58:06.895Z,99.90
2018-07-13T04:00:35.233Z,99.90
2018-07-13T04:03:04.246Z,99.90
2018-07-13T04:05:32.207Z,99.90
2018-07-13T04:08:01.464Z,99.90
2018-07-13T04:10:29.839Z,99.90
2018-07-13T04:12:58.416Z,99.90
2018-07-13T04:15:28.430Z,99.90
2018-07-13T04:17:56.466Z,99.90
2018-07-13T04:20:25.389Z,99.90
2018-07-13T04:22:53.430Z,99.90
2018-07-13T04:25:21.368Z,99.90
2018-07-13T04:27:49.972Z,99.90
2018-07-13T04:30:17.909Z,99.90
2018-07-13T04:32:46.669Z,99.90
2018-07-13T04:35:15.543Z,99.90
2018-07-13T04:37:43.442Z,99.90
2018-07-13T04:40:11.356Z,99.90
2018-07-13T04:42:39.315Z,99.90
2018-07-13T04:45:07.187Z,99.90
2018-07-13T04:47:35.903Z,99.90
2018-07-13T04:50:03.937Z,99.90
2018-07-13T04:52:32.524Z,99.90
2018-07-13T04:55:00.495Z,99.90
2018-07-13T04:57:28.826Z,99.90
2018-07-13T04:59:57.802Z,99.90
2018-07-13T05:02:25.870Z,99.90
2018-07-13T05:08:06.856Z,99.90
2018-07-13T05:10:34.761Z,99.90
2018-07-13T05:13:02.613Z,99.90
2018-07-13T05:15:30.412Z,99.90
2018-07-13T05:18:00.224Z,99.90
2018-07-13T05:20:28.088Z,99.90
2018-07-13T05:22:55.926Z,99.90
2018-07-13T05:25:23.855Z,99.90
2018-07-13T05:27:51.753Z,99.90
2018-07-13T05:30:19.636Z,99.90
2018-07-13T05:32:47.497Z,99.90
2018-07-13T05:35:15.378Z,99.90
2018-07-13T05:37:43.259Z,99.90
2018-07-13T05:40:11.119Z,99.90
2018-07-13T05:42:39.005Z,99.90
2018-07-13T05:45:06.906Z,99.90
2018-07-13T05:47:34.794Z,99.90
2018-07-13T05:50:02.730Z,99.90
2018-07-13T05:52:30.650Z,99.90
2018-07-13T05:54:59.009Z,99.90
2018-07-13T05:57:26.965Z,99.90
2018-07-13T05:59:54.904Z,99.90
2018-07-13T06:02:22.841Z,99.90
2018-07-13T06:04:51.771Z,99.90
2018-07-13T06:07:19.702Z,99.90
2018-07-13T06:09:47.706Z,99.90
2018-07-13T06:16:50.064Z,99.90
2018-07-13T06:19:18.916Z,99.90
2018-07-13T06:21:46.711Z,99.90
2018-07-13T06:24:35.126Z,99.90
2018-07-13T06:27:03.037Z,99.90
2018-07-13T06:29:30.944Z,99.90
2018-07-13T06:31:58.790Z,99.90
2018-07-13T06:34:27.336Z,99.90
2018-07-13T06:36:56.287Z,99.90
2018-07-13T06:39:24.155Z,99.90
2018-07-13T06:41:52.506Z,99.90
2018-07-13T06:44:20.930Z,99.90
2018-07-13T06:46:50.741Z,99.90
2018-07-13T06:49:18.816Z,99.90
2018-07-13T06:51:47.749Z,99.90
2018-07-13T06:54:15.828Z,99.90
2018-07-13T06:56:44.984Z,99.90
2018-07-13T06:59:18.036Z,99.90
2018-07-13T07:01:46.567Z,99.90
2018-07-13T07:04:31.212Z,99.90
2018-07-13T07:07:07.510Z,99.90
2018-07-13T07:09:36.742Z,99.50
2018-07-13T07:12:21.745Z,98.00
2018-07-13T07:14:49.670Z,97.50
2018-07-13T07:17:17.471Z,97.10
2018-07-13T07:19:45.267Z,97.50
2018-07-13T07:22:13.130Z,95.60
2018-07-13T07:24:40.943Z,96.00
2018-07-13T07:27:08.796Z,96.20
2018-07-13T07:29:37.756Z,96.50
2018-07-13T07:32:05.770Z,96.60
2018-07-13T07:34:33.878Z,96.80
2018-07-13T07:37:02.545Z,96.60
2018-07-13T07:39:30.540Z,97.10
2018-07-13T07:41:58.421Z,96.40
2018-07-13T07:44:26.358Z,96.90
2018-07-13T07:46:54.204Z,96.70
2018-07-13T07:49:22.028Z,96.50
2018-07-13T07:51:49.877Z,96.50
2018-07-13T07:54:17.674Z,96.10
2018-07-13T07:56:45.520Z,96.40
2018-07-13T07:59:13.322Z,96.00
2018-07-13T08:01:41.111Z,95.60
2018-07-13T08:04:08.957Z,96.00
2018-07-13T08:06:36.954Z,96.10
2018-07-13T08:09:05.672Z,96.10
2018-07-13T08:11:33.493Z,95.30
2018-07-13T08:14:01.624Z,94.60
2018-07-13T08:16:29.274Z,94.80
2018-07-13T08:18:57.101Z,94.20
2018-07-13T08:21:25.067Z,94.20
2018-07-13T08:23:52.955Z,93.90
2018-07-13T08:26:20.947Z,93.40
2018-07-13T08:28:49.574Z,93.90
2018-07-13T08:31:18.467Z,93.80
2018-07-13T08:33:46.230Z,92.50
2018-07-13T08:36:14.041Z,92.50
2018-07-13T08:38:52.646Z,92.80
2018-07-13T08:41:23.719Z,92.80
2018-07-13T08:43:52.011Z,93.20
2018-07-13T08:48:47.010Z,91.90
2018-07-13T08:51:14.984Z,92.00
2018-07-13T08:53:42.879Z,92.50
2018-07-13T08:56:10.877Z,92.10
2018-07-13T08:58:38.774Z,92.60
2018-07-13T09:01:06.925Z,92.00
2018-07-13T09:03:34.767Z,91.30
2018-07-13T09:06:02.698Z,90.90
2018-07-13T09:08:30.580Z,91.00
2018-07-13T09:10:59.507Z,90.40
2018-07-13T09:13:27.383Z,89.80
2018-07-13T09:15:55.196Z,89.00
2018-07-13T09:18:23.152Z,88.80
2018-07-13T09:20:50.962Z,88.60
2018-07-13T09:23:18.789Z,89.20
2018-07-13T09:25:46.577Z,88.70
2018-07-13T09:28:14.421Z,89.00
2018-07-13T09:30:42.284Z,87.60
2018-07-13T09:33:10.098Z,86.60
2018-07-13T09:38:10.450Z,87.50
2018-07-13T09:40:38.591Z,87.00
2018-07-13T09:43:06.508Z,90.20
2018-07-13T09:45:34.411Z,88.20
2018-07-13T09:48:02.402Z,87.70
2018-07-13T09:50:30.433Z,86.70
2018-07-13T09:52:58.365Z,85.30
2018-07-13T09:55:26.264Z,85.40
2018-07-13T09:57:54.130Z,84.70
2018-07-13T10:00:23.915Z,84.60
2018-07-13T10:02:51.791Z,86.20
2018-07-13T10:05:28.322Z,87.90
2018-07-13T10:07:56.251Z,88.30
2018-07-13T10:10:24.102Z,87.80
2018-07-13T10:12:51.954Z,86.20
2018-07-13T10:15:19.803Z,85.20
2018-07-13T10:18:00.571Z,85.90
2018-07-13T10:20:28.686Z,87.20
2018-07-13T10:22:58.036Z,87.70
2018-07-13T10:25:28.199Z,84.80
2018-07-13T10:27:56.971Z,83.00
2018-07-13T10:30:25.147Z,83.00
2018-07-13T10:32:53.136Z,81.20
2018-07-13T10:35:21.266Z,79.70
2018-07-13T10:37:49.269Z,77.30
2018-07-13T10:40:17.208Z,77.20
2018-07-13T10:42:44.996Z,79.30
2018-07-13T10:45:13.903Z,79.00
2018-07-13T10:47:41.744Z,78.90
2018-07-13T10:50:09.643Z,79.90
2018-07-13T10:52:38.481Z,79.30
2018-07-13T10:55:06.431Z,82.20
2018-07-13T10:57:34.369Z,80.10
2018-07-13T11:00:02.220Z,79.90
2018-07-13T11:02:30.055Z,78.10
2018-07-13T11:04:57.869Z,76.40
2018-07-13T11:07:25.686Z,76.50
2018-07-13T11:09:53.493Z,76.30
2018-07-13T11:12:21.428Z,76.30
2018-07-13T11:14:49.252Z,74.20
2018-07-13T11:17:17.073Z,74.20
2018-07-13T11:19:44.897Z,75.00
2018-07-13T11:22:12.753Z,72.30
2018-07-13T11:24:40.564Z,72.20
2018-07-13T11:27:10.446Z,71.40
2018-07-13T11:29:44.228Z,71.30
2018-07-13T11:32:12.059Z,71.20
2018-07-13T11:38:23.015Z,71.30
2018-07-13T11:40:50.872Z,72.80
2018-07-13T11:43:19.683Z,73.20
2018-07-13T11:45:47.496Z,73.10
2018-07-13T11:48:16.313Z,75.20
2018-07-13T11:50:44.150Z,78.10
2018-07-13T11:53:11.972Z,76.90
2018-07-13T11:55:39.772Z,78.20
2018-07-13T11:58:07.612Z,76.60
2018-07-13T12:00:35.476Z,74.30
2018-07-13T12:03:03.237Z,72.90
2018-07-13T12:05:31.063Z,73.50
2018-07-13T12:07:59.029Z,70.80
2018-07-13T12:10:27.818Z,68.20
2018-07-13T12:12:55.589Z,67.10
2018-07-13T12:15:24.418Z,67.30
2018-07-13T12:17:52.198Z,69.50
2018-07-13T12:20:19.984Z,66.70
2018-07-13T12:22:47.786Z,66.60
2018-07-13T12:25:15.594Z,65.80
2018-07-13T12:27:43.415Z,63.50
2018-07-13T12:30:11.257Z,61.00
2018-07-13T12:32:39.074Z,58.70
2018-07-13T12:35:06.890Z,57.50
2018-07-13T12:37:34.737Z,57.30
2018-07-13T12:40:02.575Z,56.70
2018-07-13T12:42:31.252Z,56.60
2018-07-13T12:44:59.088Z,56.70
2018-07-13T12:47:26.906Z,59.60
2018-07-13T12:49:54.705Z,60.20
2018-07-13T12:52:22.539Z,56.90
2018-07-13T12:54:50.274Z,58.30
2018-07-13T13:00:08.315Z,62.70
2018-07-13T13:02:36.795Z,67.00
2018-07-13T13:05:04.852Z,62.70
2018-07-13T13:07:32.752Z,58.60
2018-07-13T13:10:00.583Z,57.80
2018-07-13T13:12:28.370Z,58.30
2018-07-13T13:14:57.326Z,59.40
2018-07-13T13:17:25.123Z,60.60
2018-07-13T13:19:52.955Z,62.70
2018-07-13T13:22:20.790Z,64.80
2018-07-13T13:24:48.617Z,64.70
2018-07-13T13:27:16.417Z,65.20
2018-07-13T13:29:48.336Z,67.80
2018-07-13T13:32:16.121Z,66.70
2018-07-13T13:34:43.962Z,66.80
2018-07-13T13:37:11.809Z,70.00
2018-07-13T13:39:39.572Z,73.70
2018-07-13T13:42:07.379Z,75.90
2018-07-13T13:44:35.264Z,73.60
2018-07-13T13:47:03.123Z,71.20
2018-07-13T13:49:30.929Z,70.00
2018-07-13T13:52:00.728Z,68.90
2018-07-13T13:54:28.587Z,70.70
2018-07-13T13:56:56.380Z,69.80
2018-07-13T13:59:24.203Z,69.80
2018-07-13T14:01:52.294Z,68.30
2018-07-13T14:04:20.220Z,68.60
2018-07-13T14:06:48.121Z,67.40
2018-07-13T14:09:16.029Z,67.40
2018-07-13T14:11:43.896Z,67.50
2018-07-13T14:14:11.760Z,66.20
2018-07-13T14:16:39.627Z,68.70
2018-07-13T14:19:07.455Z,69.90
2018-07-13T14:21:35.272Z,71.10
2018-07-13T14:24:03.172Z,72.20
2018-07-13T14:26:31.028Z,72.40
2018-07-13T14:28:58.910Z,69.80
2018-07-13T14:31:26.727Z,71.00
2018-07-13T14:33:54.613Z,71.60
2018-07-13T14:36:24.079Z,71.90
2018-07-13T14:42:07.338Z,74.10
2018-07-13T14:44:35.268Z,74.50
2018-07-13T14:47:03.091Z,75.90
2018-07-13T14:49:30.942Z,75.00
2018-07-13T14:51:58.760Z,73.50
2018-07-13T14:54:26.600Z,72.70
2018-07-13T14:56:54.440Z,71.90
2018-07-13T14:59:22.234Z,69.90
2018-07-13T15:01:50.036Z,70.80
2018-07-13T15:04:17.937Z,73.10
2018-07-13T15:06:45.935Z,75.60
2018-07-13T15:09:13.788Z,77.00
2018-07-13T15:11:41.726Z,76.50
2018-07-13T15:14:09.624Z,77.60
2018-07-13T15:16:37.418Z,79.10
2018-07-13T15:19:05.255Z,78.70
2018-07-13T15:21:34.038Z,80.10
2018-07-13T15:24:01.818Z,79.20
2018-07-13T15:26:29.562Z,79.70
2018-07-13T15:28:57.519Z,78.50
2018-07-13T15:31:25.421Z,76.60
2018-07-13T15:34:30.958Z,75.30
2018-07-13T15:37:29.535Z,75.50
2018-07-13T15:39:57.357Z,76.40
2018-07-13T15:42:25.128Z,76.40
2018-07-13T15:44:52.962Z,74.20
2018-07-13T15:47:20.778Z,73.00
2018-07-13T15:49:48.622Z,73.40
2018-07-13T15:52:16.441Z,72.60
2018-07-13T15:54:44.240Z,74.00
2018-07-13T15:57:12.059Z,72.70
2018-07-13T15:59:39.945Z,72.20
2018-07-13T16:02:07.707Z,69.10
2018-07-13T16:04:35.550Z,69.70
2018-07-13T16:07:03.399Z,67.80
2018-07-13T16:09:31.173Z,66.50
2018-07-13T16:11:59.103Z,68.20
2018-07-13T16:14:47.794Z,68.70
2018-07-13T16:19:44.408Z,66.50
2018-07-13T16:22:12.293Z,68.50
2018-07-13T16:24:40.119Z,68.80
2018-07-13T16:27:07.954Z,68.30
2018-07-13T16:29:35.776Z,65.90
2018-07-13T16:32:03.621Z,65.20
2018-07-13T16:34:31.411Z,65.60
2018-07-13T16:36:59.212Z,68.00
2018-07-13T16:39:47.528Z,68.90
2018-07-13T16:43:03.159Z,68.00
2018-07-13T16:45:31.039Z,67.50
2018-07-13T16:47:58.910Z,68.00
2018-07-13T16:50:28.821Z,68.80
2018-07-13T16:52:56.612Z,69.70
2018-07-13T16:55:24.477Z,69.90
2018-07-13T16:57:52.306Z,69.20
2018-07-13T17:00:20.100Z,66.80
2018-07-13T17:02:47.878Z,68.60
2018-07-13T17:05:15.727Z,70.00
2018-07-13T17:07:43.559Z,70.90
2018-07-13T17:10:12.593Z,68.20
2018-07-13T17:12:41.353Z,70.20
2018-07-13T17:15:09.269Z,70.00
2018-07-13T17:17:39.558Z,69.90
2018-07-13T17:20:07.551Z,70.60
2018-07-13T17:22:36.568Z,71.70
2018-07-13T17:25:27.978Z,72.90
2018-07-13T17:27:55.809Z,74.50
2018-07-13T17:30:23.709Z,77.60
2018-07-13T17:32:51.508Z,81.70
2018-07-13T17:35:19.300Z,85.20
2018-07-13T17:37:47.244Z,87.20
2018-07-13T17:40:15.065Z,87.70
2018-07-13T17:46:13.356Z,90.10
2018-07-13T17:48:41.201Z,90.80
2018-07-13T17:51:08.997Z,91.00
2018-07-13T17:53:36.862Z,91.30
2018-07-13T17:56:05.170Z,91.30
2018-07-13T17:58:32.988Z,90.70
2018-07-13T18:01:00.874Z,90.80
2018-07-13T18:03:28.797Z,90.90
2018-07-13T18:08:50.026Z,91.20
2018-07-13T18:11:17.991Z,91.10
2018-07-13T18:13:45.858Z,91.00
2018-07-13T18:16:13.684Z,90.90
2018-07-13T18:18:41.628Z,90.90
2018-07-13T18:21:09.499Z,91.20
2018-07-13T18:23:37.360Z,91.60
2018-07-13T18:26:05.259Z,92.00
2018-07-13T18:28:33.109Z,92.30
2018-07-13T18:31:08.641Z,92.40
2018-07-13T18:33:40.402Z,92.50
2018-07-13T18:36:08.214Z,92.70
2018-07-13T18:38:36.090Z,92.50
2018-07-13T18:41:04.602Z,92.50
2018-07-13T18:43:33.473Z,92.90
2018-07-13T18:46:01.433Z,93.20
2018-07-13T18:48:30.158Z,93.40
2018-07-13T18:50:58.528Z,93.60
2018-07-13T18:53:26.394Z,93.30
2018-07-13T18:55:55.217Z,93.70
2018-07-13T18:58:23.054Z,94.10
2018-07-13T19:00:51.960Z,94.40
2018-07-13T19:03:20.836Z,94.70
2018-07-13T19:05:49.301Z,94.80
2018-07-13T19:08:17.253Z,94.80
2018-07-13T19:10:45.943Z,94.90
2018-07-13T19:13:48.446Z,95.10
2018-07-13T19:16:16.309Z,95.50
2018-07-13T19:18:45.189Z,95.80
2018-07-13T19:21:12.989Z,96.20
2018-07-13T19:23:40.818Z,96.30
2018-07-13T19:26:08.644Z,96.70
2018-07-13T19:28:36.876Z,96.80
2018-07-13T19:31:05.017Z,96.90
2018-07-13T19:33:32.885Z,97.40
2018-07-13T19:36:00.748Z,97.60
2018-07-13T19:38:28.593Z,98.00
2018-07-13T19:40:56.418Z,98.40
2018-07-13T19:43:24.313Z,98.70
2018-07-13T19:45:52.136Z,99.00
2018-07-13T19:48:19.944Z,99.50
2018-07-13T19:50:47.863Z,99.60
2018-07-13T19:53:15.806Z,99.90
2018-07-13T19:55:43.793Z,99.90
2018-07-13T19:58:11.656Z,99.90
2018-07-13T20:00:39.513Z,99.90
2018-07-13T20:03:07.297Z,99.90
2018-07-13T20:05:36.191Z,99.90
2018-07-13T20:08:04.908Z,99.90
2018-07-13T20:10:32.763Z,99.90
2018-07-13T20:13:00.661Z,99.90
2018-07-13T20:15:28.547Z,99.90
2018-07-13T20:17:56.407Z,99.90
2018-07-13T20:20:24.262Z,99.90
2018-07-13T20:22:52.093Z,99.90
2018-07-13T20:25:19.944Z,99.90
2018-07-13T20:27:47.811Z,99.90
2018-07-13T20:30:15.721Z,99.90
2018-07-13T20:32:45.159Z,99.90
2018-07-13T20:35:12.950Z,99.90
2018-07-13T20:37:40.839Z,99.90
2018-07-13T20:40:08.709Z,99.90
2018-07-13T20:42:36.561Z,99.90
2018-07-13T20:45:04.462Z,99.90
2018-07-13T20:47:32.340Z,99.90
2018-07-13T20:50:00.118Z,99.90
2018-07-13T20:52:27.966Z,99.90
2018-07-13T20:54:55.730Z,99.90
2018-07-13T20:57:24.573Z,99.90
2018-07-13T20:59:52.351Z,99.90
2018-07-13T21:02:22.150Z,99.90
2018-07-13T21:04:49.958Z,99.90
2018-07-13T21:07:17.768Z,99.90
2018-07-13T21:09:45.579Z,99.90
2018-07-13T21:12:13.404Z,99.90
2018-07-13T21:14:41.342Z,99.90
2018-07-13T21:17:17.922Z,99.90
2018-07-13T21:20:02.972Z,99.90
2018-07-13T21:22:30.767Z,99.90
2018-07-13T21:24:58.785Z,99.90
2018-07-13T21:27:26.654Z,99.90
2018-07-13T21:29:54.563Z,99.90
2018-07-13T21:32:22.466Z,99.90
2018-07-13T21:34:50.364Z,99.90
2018-07-13T21:37:18.213Z,99.90
2018-07-13T21:39:46.070Z,99.90
2018-07-13T21:42:15.044Z,99.90
2018-07-13T21:44:42.815Z,99.90
2018-07-13T21:47:10.721Z,99.90
2018-07-13T21:49:38.550Z,99.90
2018-07-13T21:52:06.415Z,99.90
2018-07-13T21:54:34.217Z,99.90
2018-07-13T21:57:02.073Z,99.90
2018-07-13T21:59:38.622Z,99.90
2018-07-13T22:02:06.610Z,99.90
2018-07-13T22:04:34.415Z,99.90
2018-07-13T22:07:02.273Z,99.90
2018-07-13T22:09:30.122Z,99.90
2018-07-13T22:11:57.978Z,99.90
2018-07-13T22:14:25.762Z,99.90
2018-07-13T22:16:53.554Z,99.90
2018-07-13T22:19:21.361Z,99.90
2018-07-13T22:21:49.231Z,99.90
2018-07-13T22:24:17.069Z,99.90
2018-07-13T22:26:44.867Z,99.90
2018-07-13T22:29:14.666Z,99.90
2018-07-13T22:31:42.497Z,99.90
2018-07-13T22:34:10.370Z,99.90
2018-07-13T22:36:38.224Z,99.90
2018-07-13T22:39:06.697Z,99.90
2018-07-13T22:41:45.279Z,99.90
2018-07-13T22:44:13.109Z,99.90
2018-07-13T22:46:40.970Z,99.90
2018-07-13T22:49:08.769Z,99.90
2018-07-13T22:51:36.610Z,99.90
2018-07-13T22:54:04.551Z,99.90
2018-07-13T22:56:32.331Z,99.90
2018-07-13T22:59:00.140Z,99.90
2018-07-13T23:01:27.994Z,99.90
2018-07-13T23:03:55.807Z,99.90
2018-07-13T23:06:23.642Z,99.90
2018-07-13T23:08:51.538Z,99.90
2018-07-13T23:13:48.765Z,99.90
2018-07-13T23:16:16.595Z,99.90
2018-07-13T23:18:44.352Z,99.90
2018-07-13T23:21:12.183Z,99.90
2018-07-13T23:23:40.005Z,99.90
2018-07-13T23:26:07.867Z,99.90
2018-07-13T23:28:35.672Z,99.90
2018-07-13T23:31:04.527Z,99.90
2018-07-13T23:33:32.324Z,99.90
2018-07-13T23:36:00.141Z,99.90
2018-07-13T23:38:27.949Z,99.90
2018-07-13T23:40:56.722Z,99.90
2018-07-13T23:43:24.526Z,99.90
2018-07-13T23:45:52.300Z,99.90
2018-07-13T23:48:20.042Z,99.90
2018-07-13T23:51:11.988Z,99.90
2018-07-13T23:53:39.849Z,99.90
2018-07-13T23:56:07.643Z,99.90
2018-07-13T23:58:35.420Z,99.90
